Time;durP1;ratioP1;P1;durP2;ratioP2;P2;SDS_P1;SDS_P2;PMS_P1;PMS_P2;Temp;Humidity;BMP_temperature;BMP_pressure;BME280_temperature;BME280_humidity;BME280_pressure;Samples;Min_cycle;Max_cycle;Signal;HPM_P1;HPM_P2
2024/04/21 00:05:41;;;;;;;2.35;1.00;;;7.20;99.90;;;;;;4907396;29;20021;-82
2024/04/21 00:09:03;;;;;;;3.85;0.75;;;7.30;99.90;;;;;;5004604;28;20059;-83
2024/04/21 00:29:04;;;;;;;1.23;0.50;;;6.90;99.90;;;;;;4827379;29;20013;-83
2024/04/21 00:31:50;;;;;;;0.93;0.50;;;7.00;99.90;;;;;;4800838;29;20023;-83
2024/04/21 00:42:33;;;;;;;1.42;0.50;;;6.80;99.90;;;;;;4794936;30;20070;-82
2024/04/21 00:45:48;;;;;;;2.25;0.63;;;6.80;99.90;;;;;;4780162;29;20062;-83
2024/04/21 00:49:41;;;;;;;2.08;0.73;;;6.60;99.90;;;;;;4821075;29;20017;-85
2024/04/21 00:53:20;;;;;;;2.25;0.75;;;6.50;99.90;;;;;;4823080;29;20024;-82
2024/04/21 01:06:25;;;;;;;0.77;0.43;;;6.40;99.90;;;;;;4780788;30;20017;-84
2024/04/21 01:09:56;;;;;;;1.35;0.50;;;6.60;99.90;;;;;;4798776;29;20010;-82
2024/04/21 01:13:21;;;;;;;0.93;0.40;;;7.00;99.90;;;;;;4773178;30;20037;-83
2024/04/21 01:16:30;;;;;;;;;;;5.20;99.90;;;;;;4822958;29;20033;-82
2024/04/21 01:24:47;;;;;;;1.75;0.32;;;6.70;99.90;;;;;;4778330;30;20037;-83
2024/04/21 01:28:34;;;;;;;0.65;0.20;;;6.50;99.90;;;;;;4778575;29;20014;-83
2024/04/21 01:32:05;;;;;;;0.60;0.22;;;7.30;99.90;;;;;;4806584;29;20018;-83
2024/04/21 01:35:23;;;;;;;0.60;0.43;;;6.30;99.90;;;;;;4864181;29;20007;-83
2024/04/21 01:42:14;;;;;;;1.02;0.20;;;6.30;99.90;;;;;;4920354;29;20010;-83
2024/04/21 02:06:06;;;;;;;1.80;0.50;;;5.80;99.90;;;;;;5019006;21;20009;-82
2024/04/21 02:08:34;;;;;;;2.60;0.50;;;5.80;99.90;;;;;;5344045;26;20051;-84
2024/04/21 02:11:05;;;;;;;1.10;0.40;;;5.80;99.90;;;;;;5345859;26;20040;-80
2024/04/21 02:13:32;;;;;;;0.95;0.47;;;5.70;99.90;;;;;;5335698;26;20052;-79
2024/04/21 02:16:03;;;;;;;1.85;0.47;;;5.70;99.90;;;;;;5343078;26;20009;-79
2024/04/21 02:18:31;;;;;;;2.58;0.52;;;5.70;99.90;;;;;;5335869;26;20001;-80
2024/04/21 02:21:04;;;;;;;0.75;0.50;;;4.30;99.90;;;;;;5348001;26;19990;-82
2024/04/21 02:23:32;;;;;;;0.90;0.40;;;5.80;99.90;;;;;;5331702;26;20076;-81
2024/04/21 02:26:03;;;;;;;1.30;0.30;;;5.70;99.90;;;;;;5343307;26;20020;-82
2024/04/21 02:28:32;;;;;;;1.38;0.40;;;5.00;99.90;;;;;;5344756;26;20012;-80
2024/04/21 02:31:03;;;;;;;0.95;0.38;;;6.20;99.90;;;;;;5349373;26;20017;-82
2024/04/21 02:33:31;;;;;;;1.40;0.50;;;5.80;99.90;;;;;;5353908;26;20029;-82
2024/04/21 02:36:05;;;;;;;0.90;0.30;;;5.90;99.90;;;;;;5350662;26;20018;-82
2024/04/21 02:38:33;;;;;;;1.73;0.40;;;5.80;99.90;;;;;;5355049;26;19996;-82
2024/04/21 02:41:04;;;;;;;2.53;0.45;;;6.00;99.90;;;;;;5348974;26;20001;-81
2024/04/21 02:43:32;;;;;;;0.80;0.28;;;6.10;99.90;;;;;;5339880;26;20019;-82
2024/04/21 02:46:03;;;;;;;1.05;0.30;;;6.00;99.90;;;;;;5349508;26;20048;-81
2024/04/21 02:48:32;;;;;;;1.02;0.38;;;5.60;99.90;;;;;;5354643;26;20001;-82
2024/04/21 02:51:06;;;;;;;1.05;0.32;;;6.00;99.90;;;;;;5359581;26;20041;-82
2024/04/21 02:53:34;;;;;;;1.40;0.50;;;6.00;99.90;;;;;;5353113;26;20607;-82
2024/04/21 02:56:05;;;;;;;1.52;0.50;;;6.10;99.90;;;;;;5353792;26;19998;-82
2024/04/21 02:58:34;;;;;;;1.65;0.47;;;5.60;99.90;;;;;;5375108;26;20041;-82
2024/04/21 03:01:07;;;;;;;1.52;0.55;;;5.70;99.90;;;;;;5346264;26;20471;-81
2024/04/21 03:03:35;;;;;;;1.17;0.52;;;5.60;99.90;;;;;;5357876;26;20001;-81
2024/04/21 03:06:08;;;;;;;1.77;0.43;;;5.60;99.90;;;;;;5343747;26;20021;-81
2024/04/21 03:08:36;;;;;;;0.73;0.30;;;5.60;99.90;;;;;;5346523;26;20008;-81
2024/04/21 03:11:07;;;;;;;1.05;0.50;;;5.40;99.90;;;;;;5341209;26;20001;-81
2024/04/21 03:13:38;;;;;;;2.03;0.60;;;5.40;99.90;;;;;;5333531;26;19993;-82
2024/04/21 03:16:06;;;;;;;1.67;0.80;;;5.40;99.90;;;;;;5355859;26;20001;-82
2024/04/21 03:18:41;;;;;;;1.98;0.60;;;5.30;99.90;;;;;;5314148;26;20005;-80
2024/04/21 03:21:11;;;;;;;2.10;0.85;;;5.20;99.90;;;;;;5339975;26;20005;-81
2024/04/21 03:23:42;;;;;;;2.35;1.00;;;5.10;99.90;;;;;;5332050;26;20012;-81
2024/04/21 03:26:12;;;;;;;2.45;0.90;;;5.20;99.90;;;;;;5418158;21;20011;-83
2024/04/21 03:29:00;;;;;;;2.60;1.20;;;4.10;99.90;;;;;;5340116;26;20005;-83
2024/04/21 03:32:32;;;;;;;;;;;5.30;99.90;;;;;;5205439;27;20089;-82
2024/04/21 03:35:25;;;;;;;2.95;0.93;;;5.20;99.90;;;;;;5129554;28;19930;-82
2024/04/21 03:41:35;;;;;;;2.05;0.73;;;5.20;99.90;;;;;;5002730;28;20001;-81
2024/04/21 03:44:22;;;;;;;2.97;1.00;;;5.20;99.90;;;;;;4975947;28;20035;-82
2024/04/21 03:47:10;;;;;;;1.70;0.70;;;5.20;99.90;;;;;;4920417;29;20022;-81
2024/04/21 03:50:05;;;;;;;2.33;1.05;;;5.30;99.90;;;;;;4893873;29;20104;-82
2024/04/21 03:52:54;;;;;;;2.13;0.82;;;5.20;99.90;;;;;;4820300;29;20021;-82
2024/04/21 03:56:13;;;;;;;2.03;1.00;;;5.50;99.90;;;;;;4816414;29;20364;-83
2024/04/21 03:59:09;;;;;;;2.45;1.05;;;5.50;99.90;;;;;;4848644;29;20020;-82
2024/04/21 04:02:22;;;;;;;2.22;1.10;;;5.50;99.90;;;;;;4835439;29;20024;-82
2024/04/21 04:05:15;;;;;;;3.58;0.98;;;5.60;99.90;;;;;;4820829;29;20019;-81
2024/04/21 04:08:34;;;;;;;2.53;1.05;;;5.40;99.90;;;;;;4770854;30;20030;-81
2024/04/21 04:21:39;;;;;;;2.70;1.42;;;5.20;99.90;;;;;;4972676;28;20026;-83
2024/04/21 04:24:35;;;;;;;3.28;1.20;;;5.00;99.90;;;;;;4967673;29;20013;-82
2024/04/21 04:27:35;;;;;;;4.93;1.50;;;4.90;99.90;;;;;;4978383;28;20098;-83
2024/04/21 04:30:18;;;;;;;4.13;1.80;;;5.20;99.90;;;;;;4911060;29;20011;-83
2024/04/21 04:36:09;;;;;;;3.47;1.80;;;5.10;99.90;;;;;;4910316;28;20019;-84
2024/04/21 04:38:48;;;;;;;4.70;1.88;;;3.90;99.90;;;;;;4911218;28;20017;-84
2024/04/21 04:44:37;;;;;;;8.60;4.05;;;5.20;99.90;;;;;;5158538;27;20014;-83
2024/04/21 04:47:08;;;;;;;7.50;2.95;;;5.20;99.90;;;;;;5157249;27;20023;-82
2024/04/21 04:52:56;;;;;;;7.47;2.53;;;5.20;99.90;;;;;;5041393;28;20011;-81
2024/04/21 05:02:56;;;;;;;7.68;2.90;;;5.60;99.90;;;;;;4919544;29;20006;-83
2024/04/21 05:05:45;;;;;;;10.07;3.33;;;5.60;99.90;;;;;;5004815;28;20008;-82
2024/04/21 05:21:49;;;;;;;6.15;2.05;;;5.80;99.90;;;;;;4951204;29;20016;-84
2024/04/21 05:26:38;;;;;;;5.45;2.58;;;6.00;99.90;;;;;;4862247;29;20068;-84
2024/04/21 05:34:21;;;;;;;6.43;2.63;;;6.20;99.90;;;;;;6256091;21;19989;-81
2024/04/21 05:36:49;;;;;;;9.27;3.58;;;6.30;99.90;;;;;;5290570;26;20009;-80
2024/04/21 05:39:22;;;;;;;3.58;1.67;;;6.30;99.90;;;;;;5290515;27;20010;-78
2024/04/21 05:41:50;;;;;;;2.55;1.52;;;6.40;99.90;;;;;;5297704;26;20015;-78
2024/04/21 05:44:22;;;;;;;3.22;1.58;;;6.40;99.90;;;;;;5316263;26;20013;-78
2024/04/21 05:46:53;;;;;;;5.40;1.70;;;6.50;99.90;;;;;;5271027;26;20014;-81
2024/04/21 05:49:26;;;;;;;5.85;1.30;;;6.90;99.90;;;;;;5277023;26;20006;-80
2024/04/21 05:51:54;;;;;;;4.18;2.00;;;6.70;99.90;;;;;;5309677;26;20005;-80
2024/04/21 05:54:24;;;;;;;4.85;1.75;;;7.70;99.90;;;;;;5306989;26;20001;-80
2024/04/21 05:56:52;;;;;;;4.97;1.60;;;6.90;99.90;;;;;;5269170;27;20006;-79
2024/04/21 05:59:23;;;;;;;2.90;1.40;;;7.00;99.90;;;;;;5305105;26;20416;-80
2024/04/21 06:01:53;;;;;;;2.15;1.10;;;6.80;99.90;;;;;;5274591;26;20002;-78
2024/04/21 06:04:29;;;;;;;2.60;1.45;;;7.00;99.90;;;;;;5309729;26;20007;-80
2024/04/21 06:06:57;;;;;;;4.38;1.30;;;7.10;99.90;;;;;;5316499;26;20017;-80
2024/04/21 06:09:28;;;;;;;3.97;1.88;;;7.40;99.90;;;;;;5309417;26;20085;-82
2024/04/21 06:11:56;;;;;;;4.30;1.77;;;7.60;99.90;;;;;;5291135;27;20011;-80
2024/04/21 06:14:27;;;;;;;2.70;1.27;;;7.60;99.90;;;;;;5286909;27;20011;-78
2024/04/21 06:16:54;;;;;;;3.15;1.15;;;7.60;99.90;;;;;;5266405;27;20010;-78
2024/04/21 06:19:27;;;;;;;2.88;1.30;;;7.80;99.90;;;;;;5277275;27;20022;-80
2024/04/21 06:21:55;;;;;;;4.15;1.58;;;7.90;99.90;;;;;;5307826;26;20019;-79
2024/04/21 06:24:26;;;;;;;3.35;1.55;;;8.00;99.90;;;;;;5311620;26;20020;-79
2024/04/21 06:26:53;;;;;;;4.53;1.60;;;8.00;99.90;;;;;;5318093;26;20001;-81
2024/04/21 06:29:24;;;;;;;5.95;1.50;;;7.70;99.90;;;;;;5311128;26;20024;-77
2024/04/21 06:31:52;;;;;;;3.38;1.80;;;8.30;99.90;;;;;;5291732;27;20013;-84
2024/04/21 06:34:23;;;;;;;3.50;1.80;;;8.60;99.90;;;;;;5301938;27;20009;-85
2024/04/21 06:36:54;;;;;;;3.60;1.30;;;8.80;99.90;;;;;;5326464;26;20020;-83
2024/04/21 06:39:26;;;;;;;4.10;1.63;;;8.90;99.90;;;;;;5346451;26;20016;-81
2024/04/21 06:41:59;;;;;;;4.15;1.50;;;9.00;99.90;;;;;;5319733;27;20016;-84
2024/04/21 06:44:29;;;;;;;3.55;1.30;;;8.90;99.90;;;;;;5339027;26;20057;-82
2024/04/21 06:46:57;;;;;;;3.67;1.40;;;9.40;99.90;;;;;;5334817;26;20033;-81
2024/04/21 06:49:45;;;;;;;2.78;1.45;;;9.00;99.90;;;;;;5347436;26;20020;-81
2024/04/21 06:52:17;;;;;;;3.13;1.00;;;8.90;99.90;;;;;;5310032;26;20010;-86
2024/04/21 06:54:47;;;;;;;3.40;1.77;;;9.30;99.90;;;;;;5312782;26;20010;-79
2024/04/21 06:57:15;;;;;;;2.00;0.98;;;9.30;99.90;;;;;;5334260;26;20309;-80
2024/04/21 06:59:45;;;;;;;3.80;1.38;;;9.40;99.90;;;;;;5310898;26;20380;-79
2024/04/21 07:02:14;;;;;;;2.47;1.00;;;9.40;99.90;;;;;;5328907;26;20006;-81
2024/04/21 07:04:45;;;;;;;2.22;1.10;;;9.40;99.80;;;;;;5349614;26;20038;-84
2024/04/21 07:07:17;;;;;;;6.03;2.65;;;9.60;99.90;;;;;;5338199;26;20018;-83
2024/04/21 07:09:48;;;;;;;2.45;1.08;;;9.80;99.90;;;;;;5313073;26;20006;-80
2024/04/21 07:12:16;;;;;;;3.08;1.40;;;9.60;98.90;;;;;;5301922;26;20005;-82
2024/04/21 07:14:46;;;;;;;10.07;4.13;;;9.40;99.00;;;;;;5352961;26;20006;-78
2024/04/21 07:28:20;;;;;;;4.28;1.50;;;9.80;98.50;;;;;;5548841;21;20025;-79
2024/04/21 07:31:05;;;;;;;3.53;1.30;;;10.20;98.30;;;;;;5402073;26;20009;-84
2024/04/21 07:36:54;;;;;;;2.75;1.13;;;10.50;97.60;;;;;;5436973;21;20004;-82
2024/04/21 07:39:27;;;;;;;2.10;1.05;;;10.40;97.50;;;;;;5418303;26;19992;-78
2024/04/21 07:42:01;;;;;;;2.55;1.20;;;10.50;97.40;;;;;;5419638;26;20072;-76
2024/04/21 07:44:33;;;;;;;2.85;1.40;;;10.40;97.40;;;;;;5390557;26;20037;-81
2024/04/21 07:47:04;;;;;;;3.78;1.08;;;10.60;97.60;;;;;;5714947;21;20009;-79
2024/04/21 07:52:54;;;;;;;1.38;0.70;;;10.90;96.60;;;;;;5295387;26;19993;-84
2024/04/21 07:55:22;;;;;;;2.15;1.00;;;11.00;96.60;;;;;;5502928;21;20004;-80
2024/04/21 08:02:15;;;;;;;2.28;0.98;;;11.30;95.90;;;;;;5419680;26;20008;-80
2024/04/21 08:04:43;;;;;;;1.63;0.70;;;11.40;94.90;;;;;;5359259;26;19995;-77
2024/04/21 08:07:31;;;;;;;1.55;0.90;;;10.90;95.50;;;;;;5419716;26;19995;-83
2024/04/21 08:21:19;;;;;;;1.88;0.90;;;11.90;94.70;;;;;;5988127;21;20053;-86
2024/04/21 08:23:48;;;;;;;1.92;1.00;;;12.20;93.50;;;;;;5419897;26;20006;-85
2024/04/21 08:26:37;;;;;;;1.17;0.60;;;12.30;93.60;;;;;;5374843;26;20449;-84
2024/04/21 08:29:05;;;;;;;;;;;12.40;92.90;;;;;;5443662;26;20020;-84
2024/04/21 08:31:36;;;;;;;3.72;1.00;;;12.70;92.70;;;;;;5424574;26;19924;-86
2024/04/21 08:34:07;;;;;;;2.13;0.57;;;12.60;92.30;;;;;;5452160;26;20048;-83
2024/04/21 08:36:41;;;;;;;1.10;0.70;;;12.20;92.50;;;;;;5425872;26;19999;-78
2024/04/21 08:39:43;;;;;;;2.28;0.82;;;12.30;92.10;;;;;;5413698;26;20069;-85
2024/04/21 08:42:14;;;;;;;1.92;0.95;;;12.70;92.50;;;;;;5329423;26;19994;-81
2024/04/21 08:44:42;;;;;;;2.95;1.40;;;13.10;92.00;;;;;;5322007;26;20017;-84
2024/04/21 08:47:15;;;;;;;1.35;0.52;;;13.20;91.60;;;;;;5302727;26;20002;-76
2024/04/21 08:49:44;;;;;;;0.98;0.32;;;13.20;90.40;;;;;;5346525;26;20026;-81
2024/04/21 08:52:19;;;;;;;1.15;0.40;;;13.40;90.70;;;;;;5334969;26;20004;-86
2024/04/21 08:54:49;;;;;;;1.13;0.50;;;13.40;89.50;;;;;;5305897;26;20005;-80
2024/04/21 08:57:25;;;;;;;2.42;0.85;;;13.60;89.60;;;;;;5322137;26;20052;-79
2024/04/21 09:00:15;;;;;;;1.27;0.60;;;13.70;89.30;;;;;;5475063;21;20038;-83
2024/04/21 09:03:20;;;;;;;1.08;0.30;;;13.70;88.80;;;;;;5479729;21;19999;-84
2024/04/21 09:06:01;;;;;;;1.70;0.40;;;13.70;89.30;;;;;;5298519;26;20625;-82
2024/04/21 09:08:50;;;;;;;1.67;0.45;;;12.60;87.40;;;;;;5291142;27;20009;-81
2024/04/21 09:11:21;;;;;;;1.35;0.30;;;13.80;86.60;;;;;;5302899;27;20018;-79
2024/04/21 09:13:53;;;;;;;2.20;0.73;;;13.90;85.80;;;;;;5293381;27;20365;-80
2024/04/21 09:23:19;;;;;;;1.48;0.50;;;13.40;86.90;;;;;;5339727;26;20009;-85
2024/04/21 09:25:50;;;;;;;1.10;0.40;;;13.70;89.50;;;;;;5350587;26;20012;-88
2024/04/21 09:40:39;;;;;;;0.40;0.20;;;14.00;86.80;;;;;;5435819;21;20003;-79
2024/04/21 09:43:23;;;;;;;1.00;0.30;;;13.50;85.00;;;;;;5423402;26;20046;-82
2024/04/21 09:46:37;;;;;;;0.45;0.20;;;12.80;86.10;;;;;;5407174;26;20009;-88
2024/04/21 09:49:22;;;;;;;0.80;0.20;;;12.90;87.00;;;;;;5297671;26;20018;-79
2024/04/21 09:51:53;;;;;;;1.48;0.20;;;13.50;84.40;;;;;;5300588;26;20024;-79
2024/04/21 09:54:32;;;;;;;;;;;14.10;84.80;;;;;;5315277;26;20009;-85
2024/04/21 09:57:11;;;;;;;1.10;0.50;;;15.30;84.50;;;;;;5196716;27;19969;-83
2024/04/21 09:59:47;;;;;;;0.98;0.47;;;13.70;84.20;;;;;;5172350;27;20160;-78
2024/04/21 10:02:24;;;;;;;2.47;0.47;;;13.20;84.90;;;;;;5197807;27;20004;-77
2024/04/21 10:04:59;;;;;;;2.00;0.52;;;12.90;86.80;;;;;;5194760;27;20525;-79
2024/04/21 10:10:20;;;;;;;3.13;0.30;;;12.90;86.90;;;;;;5199329;27;20016;-81
2024/04/21 10:12:48;;;;;;;0.68;0.28;;;13.00;86.20;;;;;;5206116;27;20016;-79
2024/04/21 10:15:32;;;;;;;1.65;0.20;;;13.30;86.40;;;;;;5198164;27;20018;-79
2024/04/21 10:18:00;;;;;;;;;;;13.20;85.80;;;;;;5193648;27;20065;-80
2024/04/21 10:20:42;;;;;;;0.60;0.30;;;12.70;84.20;;;;;;5184407;27;19964;-80
2024/04/21 10:23:22;;;;;;;1.20;0.20;;;12.30;83.70;;;;;;5191590;27;20009;-81
2024/04/21 10:26:03;;;;;;;0.70;0.20;;;13.80;84.10;;;;;;5218047;27;19999;-86
2024/04/21 10:28:34;;;;;;;0.40;0.20;;;14.20;82.00;;;;;;5291077;26;20050;-79
2024/04/21 10:31:11;;;;;;;0.45;0.10;;;14.80;81.80;;;;;;5345421;26;20014;-78
2024/04/21 10:33:48;;;;;;;0.38;0.20;;;14.70;79.00;;;;;;5393854;26;20008;-78
2024/04/21 10:36:22;;;;;;;0.93;0.22;;;15.00;78.20;;;;;;5371523;26;20012;-81
2024/04/21 10:38:53;;;;;;;0.55;0.20;;;14.50;79.00;;;;;;5375657;26;20004;-80
2024/04/21 10:41:24;;;;;;;0.50;0.20;;;13.90;79.70;;;;;;5342944;26;20010;-79
2024/04/21 10:43:56;;;;;;;0.80;0.20;;;13.60;81.50;;;;;;5335079;26;20075;-78
2024/04/21 10:46:35;;;;;;;1.02;0.20;;;13.30;81.10;;;;;;5368117;26;20013;-80
2024/04/21 10:49:09;;;;;;;1.20;0.50;;;13.20;80.70;;;;;;5352873;26;20001;-81
2024/04/21 10:51:41;;;;;;;0.60;0.20;;;13.40;81.70;;;;;;5360931;26;20526;-79
2024/04/21 10:54:11;;;;;;;2.42;0.30;;;13.90;80.30;;;;;;5359735;26;20008;-79
2024/04/21 10:56:43;;;;;;;0.43;0.20;;;14.30;79.00;;;;;;5363969;26;20040;-81
2024/04/21 10:59:13;;;;;;;0.63;0.20;;;14.70;79.40;;;;;;5356983;26;20110;-77
2024/04/21 11:01:46;;;;;;;2.65;1.05;;;14.50;78.10;;;;;;5385550;26;20051;-79
2024/04/21 11:04:28;;;;;;;0.90;0.30;;;14.00;79.50;;;;;;5352191;26;20377;-81
2024/04/21 11:06:59;;;;;;;1.20;0.40;;;13.60;79.90;;;;;;5360089;26;20029;-79
2024/04/21 11:09:27;;;;;;;1.33;0.22;;;13.30;80.30;;;;;;5353742;26;20039;-77
2024/04/21 11:12:05;;;;;;;1.08;0.20;;;13.30;80.90;;;;;;5381144;26;20011;-78
2024/04/21 11:14:33;;;;;;;0.85;0.20;;;13.70;80.10;;;;;;5392857;26;20007;-78
2024/04/21 11:17:08;;;;;;;0.40;0.13;;;14.10;78.60;;;;;;5373778;26;20008;-78
2024/04/21 11:19:42;;;;;;;0.28;0.15;;;14.40;77.60;;;;;;5360228;26;20000;-79
2024/04/21 11:22:16;;;;;;;2.63;0.20;;;14.60;77.40;;;;;;5392175;26;20008;-80
2024/04/21 11:24:45;;;;;;;0.35;0.10;;;14.70;75.50;;;;;;5400898;26;20024;-83
2024/04/21 11:27:20;;;;;;;0.65;0.20;;;15.30;77.70;;;;;;5393288;26;20004;-82
2024/04/21 11:29:50;;;;;;;1.95;0.30;;;15.20;73.50;;;;;;5394446;26;20073;-80
2024/04/21 11:32:29;;;;;;;0.70;0.13;;;15.20;73.50;;;;;;5418132;26;20525;-80
2024/04/21 11:34:59;;;;;;;1.25;0.20;;;15.20;73.50;;;;;;5387315;26;20000;-77
2024/04/21 11:41:05;;;;;;;0.60;0.25;;;14.00;74.70;;;;;;5353990;26;20001;-78
2024/04/21 11:43:34;;;;;;;1.95;0.40;;;13.90;76.10;;;;;;5350818;26;20013;-80
2024/04/21 11:46:06;;;;;;;1.35;0.20;;;13.90;76.50;;;;;;5323498;26;20015;-80
2024/04/21 11:48:38;;;;;;;0.30;0.10;;;13.90;76.60;;;;;;5325487;26;20005;-80
2024/04/21 11:51:09;;;;;;;0.73;0.20;;;14.00;76.70;;;;;;5327253;26;20480;-79
2024/04/21 11:53:43;;;;;;;0.77;0.28;;;14.30;76.70;;;;;;5375692;26;20001;-80
2024/04/21 11:56:20;;;;;;;0.38;0.10;;;14.80;76.10;;;;;;5390388;26;20008;-79
2024/04/21 11:58:49;;;;;;;14.70;1.30;;;15.30;76.50;;;;;;5389737;26;20001;-79
2024/04/21 12:01:20;;;;;;;0.95;0.20;;;14.70;73.70;;;;;;5350364;26;20005;-79
2024/04/21 12:04:04;;;;;;;0.30;0.15;;;14.60;74.20;;;;;;5384608;26;20011;-78
2024/04/21 12:06:35;;;;;;;0.35;0.10;;;14.40;73.90;;;;;;5371315;26;20009;-78
2024/04/21 12:09:17;;;;;;;1.15;0.17;;;14.30;74.60;;;;;;5336358;26;20058;-78
2024/04/21 12:11:59;;;;;;;0.77;0.20;;;14.30;75.60;;;;;;5330518;26;20015;-81
2024/04/21 12:14:32;;;;;;;2.10;0.40;;;14.20;74.70;;;;;;5322151;26;20448;-79
2024/04/21 12:17:06;;;;;;;1.15;0.13;;;14.20;74.70;;;;;;5357855;26;20078;-78
2024/04/21 12:19:36;;;;;;;0.55;0.17;;;14.40;75.00;;;;;;5357803;26;20005;-80
2024/04/21 12:22:17;;;;;;;1.67;0.30;;;14.80;74.90;;;;;;5339517;26;20036;-84
2024/04/21 12:24:50;;;;;;;0.32;0.10;;;14.20;73.00;;;;;;5337010;26;20047;-85
2024/04/21 12:27:29;;;;;;;0.80;0.30;;;15.30;73.70;;;;;;5346628;26;20004;-84
2024/04/21 12:29:58;;;;;;;0.43;0.20;;;15.60;73.30;;;;;;5378558;26;20012;-84
2024/04/21 12:32:54;;;;;;;1.30;0.20;;;15.50;71.60;;;;;;5394364;26;20011;-84
2024/04/21 12:35:33;;;;;;;1.05;0.10;;;15.50;71.80;;;;;;5289795;26;19997;-84
2024/04/21 12:38:05;;;;;;;1.10;0.10;;;15.20;73.60;;;;;;5372980;26;20028;-83
2024/04/21 12:40:33;;;;;;;0.35;0.10;;;15.00;72.20;;;;;;5394856;26;19996;-79
2024/04/21 12:43:13;;;;;;;0.88;0.20;;;14.80;73.00;;;;;;5385762;26;20012;-84
2024/04/21 12:45:45;;;;;;;1.77;0.20;;;14.80;72.40;;;;;;5289842;26;20036;-83
2024/04/21 12:48:22;;;;;;;0.60;0.20;;;14.50;73.00;;;;;;5354400;26;20008;-85
2024/04/21 12:50:56;;;;;;;0.57;0.10;;;14.40;73.30;;;;;;5366412;26;20063;-83
2024/04/21 12:53:30;;;;;;;1.05;0.30;;;14.40;73.80;;;;;;5365837;26;20054;-83
2024/04/21 12:56:34;;;;;;;0.95;0.20;;;14.20;73.30;;;;;;5372478;26;20004;-84
2024/04/21 12:59:33;;;;;;;1.98;0.38;;;14.30;73.60;;;;;;5264049;27;20458;-86
2024/04/21 13:02:12;;;;;;;2.25;0.30;;;13.80;74.40;;;;;;5264220;27;20014;-85
2024/04/21 13:04:48;;;;;;;0.63;0.17;;;14.90;74.10;;;;;;5276416;27;20011;-80
2024/04/21 13:07:25;;;;;;;0.70;0.13;;;15.30;71.80;;;;;;5259288;27;20011;-84
2024/04/21 13:09:56;;;;;;;0.30;0.10;;;15.40;72.00;;;;;;5263637;27;20027;-85
2024/04/21 13:12:30;;;;;;;0.68;0.10;;;15.50;72.40;;;;;;5269111;27;20002;-81
2024/04/21 13:15:00;;;;;;;1.48;0.20;;;15.50;70.80;;;;;;5319871;27;20005;-82
2024/04/21 13:17:31;;;;;;;1.55;0.30;;;15.50;71.40;;;;;;5315040;27;20436;-79
2024/04/21 13:19:59;;;;;;;0.68;0.10;;;15.60;71.80;;;;;;5315736;27;20009;-82
2024/04/21 13:22:33;;;;;;;1.48;0.50;;;15.30;71.60;;;;;;5299304;26;20033;-78
2024/04/21 13:25:06;;;;;;;0.40;0.10;;;15.00;71.90;;;;;;5363522;26;20005;-84
2024/04/21 13:27:40;;;;;;;1.38;0.20;;;15.00;72.00;;;;;;5388891;26;20008;-83
2024/04/21 13:30:12;;;;;;;0.45;0.10;;;14.90;72.80;;;;;;5396898;26;20028;-84
2024/04/21 13:32:49;;;;;;;0.88;0.20;;;14.80;73.30;;;;;;5373832;26;20011;-84
2024/04/21 13:35:20;;;;;;;1.17;0.20;;;15.00;73.70;;;;;;5405740;26;20049;-84
2024/04/21 13:37:54;;;;;;;0.63;0.20;;;15.10;73.30;;;;;;5421151;26;20023;-78
2024/04/21 13:40:23;;;;;;;0.55;0.10;;;15.20;73.50;;;;;;5368195;26;20394;-78
2024/04/21 13:42:57;;;;;;;0.60;0.30;;;15.20;72.60;;;;;;5399175;26;20004;-83
2024/04/21 13:45:37;;;;;;;1.92;0.10;;;15.10;72.10;;;;;;5416636;26;20494;-79
2024/04/21 13:48:09;;;;;;;2.25;0.32;;;14.80;73.00;;;;;;5413503;26;20007;-77
2024/04/21 13:50:43;;;;;;;0.30;0.10;;;14.90;74.20;;;;;;5392745;26;20000;-78
2024/04/21 13:53:28;;;;;;;1.75;0.10;;;15.00;73.70;;;;;;5373024;26;20023;-82
2024/04/21 13:56:09;;;;;;;0.25;0.10;;;14.80;72.60;;;;;;5419495;26;20358;-79
2024/04/21 13:58:42;;;;;;;1.13;0.10;;;14.60;72.00;;;;;;5374396;26;20004;-83
2024/04/21 14:01:13;;;;;;;0.60;0.10;;;14.70;74.00;;;;;;5386317;26;20008;-82
2024/04/21 14:03:52;;;;;;;0.85;0.20;;;14.60;73.90;;;;;;5436603;26;20003;-83
2024/04/21 14:06:30;;;;;;;0.35;0.10;;;14.60;74.00;;;;;;5407134;26;20003;-86
2024/04/21 14:09:11;;;;;;;1.55;0.20;;;14.90;75.00;;;;;;5407024;26;19999;-86
2024/04/21 14:11:41;;;;;;;2.05;0.20;;;14.80;75.40;;;;;;5402721;26;20007;-87
2024/04/21 14:14:14;;;;;;;2.78;0.20;;;14.80;74.00;;;;;;5403716;26;20000;-81
2024/04/21 14:16:43;;;;;;;0.82;0.20;;;14.80;75.00;;;;;;5397942;26;20002;-87
2024/04/21 14:19:15;;;;;;;1.13;0.40;;;14.90;73.90;;;;;;5385628;26;20004;-84
2024/04/21 14:21:44;;;;;;;1.50;0.38;;;14.90;73.40;;;;;;5374718;26;20466;-84
2024/04/21 14:24:18;;;;;;;2.55;0.95;;;14.80;73.40;;;;;;5391240;26;20004;-85
2024/04/21 14:26:48;;;;;;;6.45;5.05;;;14.80;73.40;;;;;;5369095;26;20049;-85
2024/04/21 14:29:18;;;;;;;0.50;0.20;;;14.60;73.60;;;;;;5389779;26;20076;-76
2024/04/21 14:31:49;;;;;;;1.05;0.50;;;14.40;74.00;;;;;;5393955;26;20013;-80
2024/04/21 14:34:28;;;;;;;0.70;0.20;;;14.60;75.00;;;;;;5393468;26;20014;-82
2024/04/21 14:36:57;;;;;;;7.47;5.47;;;14.60;75.20;;;;;;5412972;26;20011;-82
2024/04/21 14:39:33;;;;;;;2.03;1.13;;;14.60;74.40;;;;;;5317941;26;19999;-83
2024/04/21 14:42:02;;;;;;;3.83;0.77;;;14.60;74.70;;;;;;5395513;26;20011;-80
2024/04/21 14:44:37;;;;;;;1.33;0.43;;;14.50;74.30;;;;;;5406498;26;20343;-78
2024/04/21 14:47:08;;;;;;;2.70;0.68;;;14.50;74.30;;;;;;5424574;26;20003;-77
2024/04/21 14:49:54;;;;;;;1.98;0.20;;;14.60;76.10;;;;;;5406824;26;20007;-84
2024/04/21 14:52:29;;;;;;;1.00;0.20;;;14.50;75.60;;;;;;5373173;26;20003;-87
2024/04/21 14:55:06;;;;;;;1.15;0.30;;;14.60;76.00;;;;;;5399355;26;19999;-76
2024/04/21 14:57:38;;;;;;;0.95;0.30;;;14.40;75.70;;;;;;5384522;26;20008;-84
2024/04/21 15:00:16;;;;;;;1.17;0.40;;;14.50;75.70;;;;;;5351824;26;20019;-85
2024/04/21 15:02:47;;;;;;;0.40;0.10;;;14.60;76.20;;;;;;5412612;26;20004;-82
2024/04/21 15:05:19;;;;;;;1.75;0.40;;;14.40;75.20;;;;;;5388826;26;20004;-84
2024/04/21 15:07:57;;;;;;;0.50;0.20;;;14.40;75.90;;;;;;5385210;26;20054;-84
2024/04/21 15:10:36;;;;;;;0.50;0.15;;;14.30;76.40;;;;;;5396762;26;20021;-85
2024/04/21 15:13:05;;;;;;;0.60;0.30;;;14.20;76.00;;;;;;5408822;26;20023;-80
2024/04/21 15:15:46;;;;;;;1.23;0.30;;;14.20;77.00;;;;;;5399753;26;20014;-82
2024/04/21 15:18:15;;;;;;;3.60;0.40;;;14.10;77.80;;;;;;5393806;26;20011;-80
2024/04/21 15:20:52;;;;;;;1.42;0.55;;;14.20;77.90;;;;;;5397891;26;20035;-85
2024/04/21 15:23:22;;;;;;;0.98;0.40;;;13.90;77.80;;;;;;5368195;26;20017;-87
2024/04/21 15:28:41;;;;;;;2.13;0.85;;;14.00;78.30;;;;;;5370943;26;20020;-86
2024/04/21 15:31:11;;;;;;;0.90;0.30;;;13.70;78.90;;;;;;5367243;26;20005;-82
2024/04/21 15:33:50;;;;;;;1.05;0.40;;;13.70;79.50;;;;;;5388658;26;20004;-85
2024/04/21 15:36:28;;;;;;;1.90;0.30;;;13.60;79.90;;;;;;5406463;26;20004;-83
2024/04/21 15:39:01;;;;;;;3.05;1.08;;;13.60;80.70;;;;;;5377526;26;20016;-85
2024/04/21 15:41:38;;;;;;;1.38;0.60;;;13.70;81.10;;;;;;5401587;26;19999;-84
2024/04/21 15:44:21;;;;;;;1.35;0.47;;;12.70;79.80;;;;;;5375027;26;20085;-83
2024/04/21 15:46:53;;;;;;;3.67;0.40;;;13.70;81.00;;;;;;5406599;26;20014;-83
2024/04/21 15:49:23;;;;;;;0.90;0.30;;;13.70;80.80;;;;;;5412282;26;20000;-81
2024/04/21 15:51:57;;;;;;;0.57;0.20;;;13.60;81.10;;;;;;5387879;26;20014;-87
2024/04/21 15:54:33;;;;;;;2.08;0.30;;;13.60;80.20;;;;;;5370164;26;20000;-79
2024/04/21 15:57:26;;;;;;;1.55;0.30;;;13.50;80.50;;;;;;5328011;27;20002;-84
2024/04/21 16:00:00;;;;;;;1.55;0.30;;;13.50;80.20;;;;;;5264978;27;20006;-80
2024/04/21 16:02:42;;;;;;;1.48;0.30;;;13.40;80.70;;;;;;5305869;27;20010;-84
2024/04/21 16:05:13;;;;;;;1.95;0.40;;;13.30;80.90;;;;;;5230750;26;20018;-80
2024/04/21 16:10:31;;;;;;;1.42;0.65;;;13.20;80.80;;;;;;5293614;27;20035;-77
2024/04/21 16:13:20;;;;;;;1.77;0.90;;;13.10;80.90;;;;;;5287550;27;20013;-83
2024/04/21 16:16:13;;;;;;;1.23;0.57;;;13.00;82.00;;;;;;5320799;26;20010;-81
2024/04/21 16:18:53;;;;;;;2.85;0.90;;;13.90;82.60;;;;;;5286249;27;20082;-83
2024/04/21 16:21:44;;;;;;;1.55;0.70;;;13.00;83.50;;;;;;5297104;27;20047;-78
2024/04/21 16:24:14;;;;;;;2.47;0.80;;;13.30;84.00;;;;;;5295903;27;20024;-79
2024/04/21 16:30:19;;;;;;;1.58;1.00;;;13.10;83.90;;;;;;5280377;27;20006;-83
2024/04/21 16:33:14;;;;;;;2.58;1.40;;;12.90;84.00;;;;;;5295647;27;20071;-83
2024/04/21 16:36:04;;;;;;;3.15;1.58;;;12.90;85.00;;;;;;5272496;27;20038;-78
2024/04/21 16:38:43;;;;;;;2.15;1.67;;;13.00;85.00;;;;;;5324100;26;20002;-83
2024/04/21 16:41:52;;;;;;;2.20;1.27;;;14.30;86.00;;;;;;5281608;27;20002;-82
2024/04/21 16:45:08;;;;;;;2.17;1.33;;;12.60;85.50;;;;;;5106308;28;20011;-84
2024/04/21 16:51:36;;;;;;;3.80;1.90;;;12.60;86.70;;;;;;5055853;28;20003;-84
2024/04/21 16:54:55;;;;;;;6.35;3.40;;;12.60;87.40;;;;;;5032320;28;20007;-79
2024/04/21 16:57:47;;;;;;;9.13;4.47;;;12.50;88.00;;;;;;5030438;28;20020;-84
2024/04/21 17:00:28;;;;;;;5.10;2.75;;;12.40;88.50;;;;;;4996048;28;20005;-78
2024/04/21 17:03:03;;;;;;;10.43;3.83;;;12.30;88.30;;;;;;5032692;28;20016;-83